createdAt,value
2022-10-18T00:02:26.280Z,93766.41
2022-10-18T00:04:52.719Z,93758.63
2022-10-18T00:07:19.161Z,93749.69
2022-10-18T00:09:45.653Z,93752.13
2022-10-18T00:12:12.154Z,93754.03
2022-10-18T00:14:38.570Z,93753.00
2022-10-18T00:17:05.018Z,93751.41
2022-10-18T00:19:31.524Z,93752.19
2022-10-18T00:21:57.965Z,93754.59
2022-10-18T00:24:24.406Z,93754.19
2022-10-18T00:26:50.831Z,93753.94
2022-10-18T00:29:17.379Z,93759.69
2022-10-18T00:31:44.371Z,93758.88
2022-10-18T00:34:15.956Z,93751.31
2022-10-18T00:36:43.482Z,93756.34
2022-10-18T00:39:15.695Z,93752.34
2022-10-18T00:41:42.251Z,93749.16
2022-10-18T00:44:11.575Z,93743.88
2022-10-18T00:46:40.929Z,93745.50
2022-10-18T00:49:25.060Z,93750.31
2022-10-18T00:52:30.511Z,93745.06
2022-10-18T00:54:58.055Z,93744.00
2022-10-18T00:57:25.745Z,93754.38
2022-10-18T00:59:53.564Z,93758.03
2022-10-18T01:02:20.483Z,93754.38
2022-10-18T01:04:47.893Z,93758.03
2022-10-18T01:07:26.218Z,93752.78
2022-10-18T01:10:11.433Z,93755.22
2022-10-18T01:12:50.650Z,93757.06
2022-10-18T01:15:23.944Z,93751.00
2022-10-18T01:18:00.274Z,93755.28
2022-10-18T01:24:38.890Z,93749.13
2022-10-18T01:27:29.448Z,93745.16
2022-10-18T01:30:19.680Z,93746.19
2022-10-18T01:32:54.254Z,93740.66
2022-10-18T01:35:29.756Z,93744.66
2022-10-18T01:37:59.741Z,93753.09
2022-10-18T01:40:27.311Z,93742.31
2022-10-18T01:42:54.406Z,93739.66
2022-10-18T01:45:22.798Z,93738.38
2022-10-18T01:47:50.820Z,93731.84
2022-10-18T01:50:28.660Z,93737.38
2022-10-18T01:52:55.114Z,93739.03
2022-10-18T01:56:13.901Z,93737.72
2022-10-18T01:58:52.419Z,93732.72
2022-10-18T02:01:29.526Z,93731.16
2022-10-18T02:04:04.131Z,93733.81
2022-10-18T02:06:37.220Z,93731.94
2022-10-18T02:09:18.757Z,93729.06
2022-10-18T02:11:51.206Z,93736.44
2022-10-18T02:14:19.481Z,93733.81
2022-10-18T02:16:51.658Z,93734.88
2022-10-18T02:19:28.546Z,93740.44
2022-10-18T02:21:58.033Z,93728.56
2022-10-18T02:24:32.713Z,93732.78
2022-10-18T02:26:59.225Z,93724.03
2022-10-18T02:29:25.967Z,93726.63
2022-10-18T02:32:03.303Z,93725.06
2022-10-18T02:34:35.725Z,93731.13
2022-10-18T02:37:03.055Z,93724.00
2022-10-18T02:39:35.518Z,93723.75
2022-10-18T02:42:06.762Z,93718.44
2022-10-18T02:44:34.220Z,93724.75
2022-10-18T02:47:01.347Z,93722.69
2022-10-18T02:49:27.956Z,93726.06
2022-10-18T02:51:54.376Z,93724.19
2022-10-18T02:54:20.893Z,93726.06
2022-10-18T02:56:47.346Z,93733.13
2022-10-18T02:59:13.861Z,93732.06
2022-10-18T03:01:40.384Z,93739.44
2022-10-18T03:04:07.157Z,93725.94
2022-10-18T03:06:34.214Z,93732.03
2022-10-18T03:09:05.747Z,93733.06
2022-10-18T03:11:32.398Z,93740.44
2022-10-18T03:13:58.843Z,93736.69
2022-10-18T03:16:25.370Z,93741.41
2022-10-18T03:18:51.827Z,93739.59
2022-10-18T03:21:18.459Z,93741.16
2022-10-18T03:23:45.018Z,93746.75
2022-10-18T03:26:11.507Z,93748.34
2022-10-18T03:28:38.052Z,93751.53
2022-10-18T03:31:04.987Z,93745.75
2022-10-18T03:33:32.679Z,93750.47
2022-10-18T03:35:59.251Z,93745.16
2022-10-18T03:38:25.807Z,93751.53
2022-10-18T03:40:52.243Z,93743.84
2022-10-18T03:43:18.816Z,93738.00
2022-10-18T03:45:45.321Z,93747.50
2022-10-18T03:48:11.821Z,93758.75
2022-10-18T03:50:38.411Z,93756.84
2022-10-18T03:53:04.963Z,93756.56
2022-10-18T03:55:31.430Z,93761.53
2022-10-18T03:57:57.966Z,93762.03
2022-10-18T04:00:24.477Z,93758.84
2022-10-18T04:02:53.444Z,93755.94
2022-10-18T04:05:23.998Z,93756.13
2022-10-18T04:07:50.815Z,93750.09
2022-10-18T04:10:18.604Z,93768.34
2022-10-18T04:12:45.129Z,93766.38
2022-10-18T04:15:11.730Z,93761.63
2022-10-18T04:17:38.200Z,93752.13
2022-10-18T04:20:05.186Z,93753.88
2022-10-18T04:22:31.645Z,93751.97
2022-10-18T04:24:58.365Z,93751.66
2022-10-18T04:27:24.962Z,93750.53
2022-10-18T04:29:51.372Z,93749.69
2022-10-18T04:32:17.798Z,93751.75
2022-10-18T04:34:44.236Z,93751.16
2022-10-18T04:37:10.745Z,93756.53
2022-10-18T04:39:37.181Z,93760.66
2022-10-18T04:42:03.685Z,93756.94
2022-10-18T04:44:30.155Z,93759.25
2022-10-18T04:46:56.590Z,93760.28
2022-10-18T04:49:23.143Z,93757.09
2022-10-18T04:51:49.572Z,93756.94
2022-10-18T04:54:16.089Z,93747.50
2022-10-18T04:56:42.560Z,93744.03
2022-10-18T04:59:08.988Z,93752.81
2022-10-18T05:01:35.474Z,93749.00
2022-10-18T05:04:01.969Z,93740.25
2022-10-18T05:06:28.475Z,93742.59
2022-10-18T05:08:54.969Z,93743.66
2022-10-18T05:11:21.466Z,93745.66
2022-10-18T05:13:50.161Z,93746.03
2022-10-18T05:16:17.664Z,93740.22
2022-10-18T05:18:44.171Z,93748.13
2022-10-18T05:21:10.853Z,93749.72
2022-10-18T05:23:37.317Z,93746.63
2022-10-18T05:26:08.091Z,93746.13
2022-10-18T05:28:40.166Z,93748.84
2022-10-18T05:31:09.910Z,93738.94
2022-10-18T05:33:36.763Z,93746.94
2022-10-18T05:36:03.941Z,93743.16
2022-10-18T05:38:31.055Z,93744.44
2022-10-18T05:40:58.343Z,93743.75
2022-10-18T05:43:28.888Z,93745.50
2022-10-18T05:45:55.705Z,93744.78
2022-10-18T05:48:22.209Z,93735.28
2022-10-18T05:50:48.646Z,93738.06
2022-10-18T05:53:35.168Z,93730.75
2022-10-18T05:56:02.711Z,93740.78
2022-10-18T05:58:29.340Z,93742.06
2022-10-18T06:01:01.539Z,93729.97
2022-10-18T06:03:28.350Z,93734.06
2022-10-18T06:06:09.362Z,93735.22
2022-10-18T06:08:37.424Z,93736.81
2022-10-18T06:11:07.509Z,93744.28
2022-10-18T06:13:34.281Z,93749.72
2022-10-18T06:16:00.768Z,93745.63
2022-10-18T06:18:27.259Z,93743.81
2022-10-18T06:20:58.916Z,93744.13
2022-10-18T06:23:27.385Z,93742.84
2022-10-18T06:25:57.837Z,93736.25
2022-10-18T06:28:24.302Z,93737.84
2022-10-18T06:30:50.773Z,93746.28
2022-10-18T06:33:17.205Z,93738.66
2022-10-18T06:35:43.624Z,93745.31
2022-10-18T06:38:10.070Z,93746.69
2022-10-18T06:40:38.157Z,93743.78
2022-10-18T06:43:19.958Z,93747.00
2022-10-18T06:45:48.218Z,93752.00
2022-10-18T06:48:14.777Z,93758.63
2022-10-18T06:50:41.350Z,93754.69
2022-10-18T06:53:09.049Z,93752.88
2022-10-18T06:55:35.885Z,93756.59
2022-10-18T06:58:02.348Z,93760.03
2022-10-18T07:00:28.813Z,93758.72
2022-10-18T07:02:57.171Z,93768.25
2022-10-18T07:05:23.890Z,93775.13
2022-10-18T07:07:54.201Z,93776.19
2022-10-18T07:10:23.659Z,93775.66
2022-10-18T07:12:51.599Z,93774.59
2022-10-18T07:15:22.522Z,93778.06
2022-10-18T07:17:49.427Z,93773.28
2022-10-18T07:20:16.745Z,93779.38
2022-10-18T07:22:43.188Z,93778.28
2022-10-18T07:25:10.267Z,93773.25
2022-10-18T07:27:41.239Z,93767.72
2022-10-18T07:30:09.687Z,93774.03
2022-10-18T07:32:36.638Z,93771.09
2022-10-18T07:35:04.437Z,93777.72
2022-10-18T07:37:31.258Z,93777.72
2022-10-18T07:39:57.948Z,93782.47
2022-10-18T07:42:24.947Z,93787.25
2022-10-18T07:44:51.415Z,93791.22
2022-10-18T07:47:18.137Z,93799.97
2022-10-18T07:49:44.629Z,93798.88
2022-10-18T07:52:11.472Z,93797.53
2022-10-18T07:54:38.006Z,93800.72
2022-10-18T07:57:05.071Z,93798.56
2022-10-18T07:59:31.551Z,93805.19
2022-10-18T08:01:58.099Z,93796.47
2022-10-18T08:04:24.594Z,93796.44
2022-10-18T08:06:51.079Z,93799.34
2022-10-18T08:09:17.526Z,93803.56
2022-10-18T08:11:44.040Z,93797.16
2022-10-18T08:14:10.509Z,93795.28
2022-10-18T08:16:36.937Z,93787.31
2022-10-18T08:19:04.231Z,93790.41
2022-10-18T08:21:30.662Z,93801.66
2022-10-18T08:23:57.113Z,93791.56
2022-10-18T08:26:23.756Z,93775.09
2022-10-18T08:28:58.332Z,93776.59
2022-10-18T08:31:30.455Z,93779.09
2022-10-18T08:33:57.292Z,93775.31
2022-10-18T08:36:24.335Z,93776.03
2022-10-18T08:38:50.878Z,93779.50
2022-10-18T08:41:17.258Z,93790.56
2022-10-18T08:44:07.601Z,93778.53
2022-10-18T08:46:37.015Z,93788.38
2022-10-18T08:49:05.388Z,93796.84
2022-10-18T08:51:42.924Z,93792.06
2022-10-18T08:54:15.666Z,93794.28
2022-10-18T08:56:49.343Z,93792.94
2022-10-18T08:59:15.906Z,93801.63
2022-10-18T09:02:19.622Z,93796.50
2022-10-18T09:04:46.024Z,93791.63
2022-10-18T09:07:37.247Z,93785.66
2022-10-18T09:10:26.047Z,93781.56
2022-10-18T09:13:29.982Z,93784.22
2022-10-18T09:16:10.901Z,93781.66
2022-10-18T09:18:58.411Z,93787.31
2022-10-18T09:21:46.348Z,93787.59
2022-10-18T09:24:18.156Z,93790.72
2022-10-18T09:26:47.192Z,93801.00
2022-10-18T09:29:47.631Z,93801.34
2022-10-18T09:32:38.430Z,93799.19
2022-10-18T09:35:16.761Z,93811.72
2022-10-18T09:37:44.646Z,93799.03
2022-10-18T09:40:27.946Z,93800.78
2022-10-18T09:43:00.496Z,93794.56
2022-10-18T09:45:32.586Z,93803.84
2022-10-18T09:48:03.460Z,93803.66
2022-10-18T09:50:37.842Z,93810.84
2022-10-18T09:53:12.161Z,93807.41
2022-10-18T09:55:52.535Z,93806.19
2022-10-18T09:58:20.842Z,93800.50
2022-10-18T10:00:52.641Z,93804.72
2022-10-18T10:03:19.444Z,93800.50
2022-10-18T10:05:46.158Z,93816.22
2022-10-18T10:08:12.636Z,93805.88
2022-10-18T10:10:42.659Z,93800.97
2022-10-18T10:13:22.090Z,93817.44
2022-10-18T10:16:03.002Z,93814.84
2022-10-18T10:18:32.199Z,93799.84
2022-10-18T10:21:00.873Z,93797.66
2022-10-18T10:23:37.684Z,93806.16
2022-10-18T10:26:20.280Z,93807.13
2022-10-18T10:28:48.851Z,93810.63
2022-10-18T10:31:24.547Z,93810.75
2022-10-18T10:34:06.669Z,93811.75
2022-10-18T10:36:34.192Z,93804.25
2022-10-18T10:39:11.812Z,93801.31
2022-10-18T10:41:40.541Z,93812.19
2022-10-18T10:44:15.698Z,93797.44
2022-10-18T10:46:42.230Z,93802.00
2022-10-18T10:49:40.172Z,93803.38
2022-10-18T10:52:26.777Z,93796.66
2022-10-18T10:55:05.820Z,93795.44
2022-10-18T10:57:32.734Z,93798.03
2022-10-18T10:59:59.978Z,93791.25
2022-10-18T11:02:32.272Z,93793.34
2022-10-18T11:05:45.320Z,93796.88
2022-10-18T11:08:16.920Z,93802.50
2022-10-18T11:11:23.168Z,93788.81
2022-10-18T11:14:13.635Z,93797.44
2022-10-18T11:16:54.960Z,93800.19
2022-10-18T11:19:37.097Z,93795.16
2022-10-18T11:22:07.100Z,93805.16
2022-10-18T11:24:35.914Z,93801.19
2022-10-18T11:27:14.651Z,93788.69
2022-10-18T11:29:58.416Z,93793.59
2022-10-18T11:32:39.669Z,93786.25
2022-10-18T11:35:27.905Z,93785.78
2022-10-18T11:38:12.156Z,93798.31
2022-10-18T11:40:57.278Z,93791.09
2022-10-18T11:44:03.937Z,93789.09
2022-10-18T11:46:57.649Z,93788.00
2022-10-18T11:49:54.394Z,93782.84
2022-10-18T11:52:20.735Z,93781.63
2022-10-18T11:54:50.493Z,93779.03
2022-10-18T11:57:41.739Z,93780.41
2022-10-18T12:00:34.294Z,93784.31
2022-10-18T12:03:14.015Z,93783.88
2022-10-18T12:05:44.450Z,93771.31
2022-10-18T12:08:16.087Z,93775.63
2022-10-18T12:11:06.572Z,93772.63
2022-10-18T12:13:40.009Z,93773.94
2022-10-18T12:16:08.527Z,93770.97
2022-10-18T12:18:43.135Z,93768.69
2022-10-18T12:21:12.987Z,93763.88
2022-10-18T12:23:49.472Z,93768.16
2022-10-18T12:26:17.050Z,93773.63
2022-10-18T12:29:18.511Z,93771.22
2022-10-18T12:32:05.915Z,93765.03
2022-10-18T12:34:38.581Z,93768.00
2022-10-18T12:37:13.323Z,93771.81
2022-10-18T12:40:05.491Z,93764.56
2022-10-18T12:42:33.939Z,93767.06
2022-10-18T12:45:21.179Z,93758.72
2022-10-18T12:47:47.725Z,93760.63
2022-10-18T12:50:42.522Z,93763.44
2022-10-18T12:53:12.308Z,93761.34
2022-10-18T12:55:45.522Z,93748.00
2022-10-18T12:58:14.769Z,93744.53
2022-10-18T13:00:44.147Z,93747.69
2022-10-18T13:03:13.606Z,93741.69
2022-10-18T13:06:02.976Z,93743.25
2022-10-18T13:08:34.069Z,93740.91
2022-10-18T13:11:12.513Z,93745.16
2022-10-18T13:14:00.175Z,93739.31
2022-10-18T13:16:52.880Z,93744.13
2022-10-18T13:19:37.726Z,93734.28
2022-10-18T13:22:35.231Z,93736.91
2022-10-18T13:25:17.015Z,93737.91
2022-10-18T13:27:58.395Z,93727.59
2022-10-18T13:30:45.730Z,93735.94
2022-10-18T13:33:34.684Z,93739.31
2022-10-18T13:36:04.123Z,93735.78
2022-10-18T13:38:36.541Z,93745.94
2022-10-18T13:41:14.777Z,93748.56
2022-10-18T13:43:52.208Z,93743.66
2022-10-18T13:46:45.672Z,93739.03
2022-10-18T13:49:40.189Z,93742.38
2022-10-18T13:52:25.742Z,93745.31
2022-10-18T13:55:17.015Z,93739.53
2022-10-18T13:57:55.639Z,93747.56
2022-10-18T14:00:48.973Z,93739.25
2022-10-18T14:06:36.132Z,93750.38
2022-10-18T14:09:25.404Z,93745.78
2022-10-18T14:12:12.299Z,93748.84
2022-10-18T14:15:03.796Z,93757.09
2022-10-18T14:17:36.328Z,93754.22
2022-10-18T14:20:16.828Z,93749.09
2022-10-18T14:22:49.716Z,93753.34
2022-10-18T14:25:36.976Z,93756.47
2022-10-18T14:28:12.595Z,93761.13
2022-10-18T14:30:59.547Z,93752.78
2022-10-18T14:33:44.780Z,93753.16
2022-10-18T14:36:21.877Z,93753.03
2022-10-18T14:39:01.972Z,93755.34
2022-10-18T14:41:47.295Z,93752.41
2022-10-18T14:44:18.478Z,93755.94
2022-10-18T14:46:49.442Z,93748.81
2022-10-18T14:49:18.249Z,93752.00
2022-10-18T14:51:48.928Z,93749.75
2022-10-18T14:54:19.191Z,93754.66
2022-10-18T14:56:46.108Z,93748.44
2022-10-18T14:59:18.546Z,93757.09
2022-10-18T15:02:05.140Z,93755.56
2022-10-18T15:04:34.570Z,93749.06
2022-10-18T15:07:06.194Z,93742.88
2022-10-18T15:09:35.103Z,93743.09
2022-10-18T15:12:06.509Z,93742.97
2022-10-18T15:14:35.482Z,93744.22
2022-10-18T15:17:14.553Z,93740.78
2022-10-18T15:19:54.078Z,93734.25
2022-10-18T15:22:31.686Z,93735.47
2022-10-18T15:25:21.063Z,93735.69
2022-10-18T15:27:50.097Z,93725.22
2022-10-18T15:30:24.809Z,93730.13
2022-10-18T15:32:59.874Z,93724.22
2022-10-18T15:35:35.104Z,93732.91
2022-10-18T15:38:14.393Z,93735.00
2022-10-18T15:40:42.066Z,93728.75
2022-10-18T15:43:23.625Z,93733.81
2022-10-18T15:46:01.793Z,93737.75
2022-10-18T15:48:38.589Z,93737.91
2022-10-18T15:51:26.689Z,93728.91
2022-10-18T15:53:54.334Z,93735.44
2022-10-18T15:56:34.010Z,93735.34
2022-10-18T15:59:04.102Z,93732.97
2022-10-18T16:01:38.333Z,93732.31
2022-10-18T16:04:12.098Z,93729.13
2022-10-18T16:06:38.677Z,93734.16
2022-10-18T16:09:05.647Z,93725.97
2022-10-18T16:11:32.363Z,93727.34
2022-10-18T16:14:00.433Z,93730.25
2022-10-18T16:16:29.167Z,93733.75
2022-10-18T16:18:56.370Z,93732.91
2022-10-18T16:21:30.102Z,93742.28
2022-10-18T16:23:56.734Z,93734.56
2022-10-18T16:26:24.677Z,93737.75
2022-10-18T16:28:51.836Z,93735.28
2022-10-18T16:31:21.307Z,93733.94
2022-10-18T16:33:48.661Z,93734.31
2022-10-18T16:36:23.950Z,93738.25
2022-10-18T16:38:51.385Z,93740.00
2022-10-18T16:41:18.200Z,93741.53
2022-10-18T16:43:46.265Z,93748.59
2022-10-18T16:46:24.811Z,93747.03
2022-10-18T16:48:51.750Z,93746.59
2022-10-18T16:51:18.336Z,93749.03
2022-10-18T16:53:45.482Z,93753.44
2022-10-18T16:56:18.210Z,93753.28
2022-10-18T16:58:45.328Z,93758.44
2022-10-18T17:01:13.786Z,93755.22
2022-10-18T17:03:40.494Z,93758.22
2022-10-18T17:06:18.715Z,93758.09
2022-10-18T17:08:45.653Z,93769.63
2022-10-18T17:11:14.190Z,93768.13
2022-10-18T17:13:40.749Z,93772.06
2022-10-18T17:16:13.281Z,93772.16
2022-10-18T17:18:39.742Z,93772.47
2022-10-18T17:21:06.189Z,93777.31
2022-10-18T17:23:34.061Z,93772.91
2022-10-18T17:26:07.173Z,93774.84
2022-10-18T17:28:41.737Z,93777.78
2022-10-18T17:31:08.229Z,93775.75
2022-10-18T17:33:34.812Z,93779.78
2022-10-18T17:36:01.272Z,93785.94
2022-10-18T17:38:27.819Z,93788.59
2022-10-18T17:40:54.489Z,93790.72
2022-10-18T17:43:20.976Z,93793.44
2022-10-18T17:45:54.293Z,93790.06
2022-10-18T17:48:21.972Z,93801.75
2022-10-18T17:50:48.722Z,93800.75
2022-10-18T17:53:16.557Z,93803.16
2022-10-18T17:55:43.008Z,93803.16
2022-10-18T17:58:10.099Z,93800.75
2022-10-18T18:00:36.544Z,93799.97
2022-10-18T18:03:03.157Z,93796.28
2022-10-18T18:05:31.466Z,93800.00
2022-10-18T18:08:02.707Z,93799.19
2022-10-18T18:10:32.988Z,93801.59
2022-10-18T18:12:59.662Z,93806.38
2022-10-18T18:15:26.135Z,93804.50
2022-10-18T18:17:57.196Z,93807.94
2022-10-18T18:20:24.487Z,93800.56
2022-10-18T18:22:51.456Z,93807.97
2022-10-18T18:25:17.986Z,93792.84
2022-10-18T18:27:44.523Z,93802.66
2022-10-18T18:30:11.445Z,93801.09
2022-10-18T18:32:39.603Z,93801.34
2022-10-18T18:35:06.372Z,93796.31
2022-10-18T18:37:32.801Z,93791.53
2022-10-18T18:39:59.251Z,93797.88
2022-10-18T18:42:25.791Z,93792.56
2022-10-18T18:44:52.254Z,93796.78
2022-10-18T18:47:21.621Z,93792.25
2022-10-18T18:49:48.837Z,93793.84
2022-10-18T18:52:15.433Z,93794.34
2022-10-18T18:54:41.877Z,93795.66
2022-10-18T18:57:08.355Z,93796.97
2022-10-18T18:59:34.779Z,93799.31
2022-10-18T19:02:01.233Z,93800.59
2022-10-18T19:04:28.990Z,93804.59
2022-10-18T19:06:55.771Z,93794.25
2022-10-18T19:09:22.922Z,93791.84
2022-10-18T19:11:52.319Z,93793.13
2022-10-18T19:14:19.607Z,93795.47
2022-10-18T19:16:47.435Z,93797.03
2022-10-18T19:19:19.624Z,93799.13
2022-10-18T19:21:49.413Z,93794.91
2022-10-18T19:24:15.958Z,93793.88
2022-10-18T19:26:47.510Z,93797.59
2022-10-18T19:29:23.203Z,93794.69
2022-10-18T19:31:56.008Z,93797.25
2022-10-18T19:34:24.345Z,93789.56
2022-10-18T19:36:51.831Z,93798.28
2022-10-18T19:39:23.264Z,93798.25
2022-10-18T19:41:53.065Z,93799.56
2022-10-18T19:44:19.984Z,93793.22
2022-10-18T19:46:47.039Z,93796.09
2022-10-18T19:49:14.001Z,93795.84
2022-10-18T19:51:41.011Z,93796.59
2022-10-18T19:54:07.586Z,93798.91
2022-10-18T19:56:34.105Z,93797.03
2022-10-18T19:59:00.685Z,93788.78
2022-10-18T20:01:28.577Z,93794.59
2022-10-18T20:03:55.645Z,93792.94
2022-10-18T20:06:22.260Z,93798.22
2022-10-18T20:08:48.937Z,93788.41
2022-10-18T20:11:21.310Z,93794.72
2022-10-18T20:13:47.818Z,93794.09
2022-10-18T20:16:16.545Z,93794.91
2022-10-18T20:18:45.819Z,93795.97
2022-10-18T20:21:15.408Z,93801.50
2022-10-18T20:23:43.571Z,93801.25
2022-10-18T20:26:18.287Z,93798.06
2022-10-18T20:28:56.879Z,93798.06
2022-10-18T20:31:31.713Z,93801.72
2022-10-18T20:34:00.963Z,93792.78
2022-10-18T20:36:29.228Z,93800.13
2022-10-18T20:38:56.475Z,93791.97
2022-10-18T20:41:28.168Z,93798.59
2022-10-18T20:44:00.698Z,93799.59
2022-10-18T20:46:30.429Z,93801.19
2022-10-18T20:48:57.039Z,93797.75
2022-10-18T20:51:24.232Z,93799.31
2022-10-18T20:53:51.518Z,93804.31
2022-10-18T20:56:21.141Z,93798.06
2022-10-18T20:58:53.237Z,93794.84
2022-10-18T21:01:23.648Z,93796.16
2022-10-18T21:03:52.014Z,93797.72
2022-10-18T21:06:23.136Z,93794.03
2022-10-18T21:08:58.001Z,93796.16
2022-10-18T21:11:25.574Z,93791.44
2022-10-18T21:13:58.853Z,93787.19
2022-10-18T21:16:26.334Z,93781.94
2022-10-18T21:18:52.858Z,93789.03
2022-10-18T21:21:24.469Z,93780.03
2022-10-18T21:23:51.922Z,93783.72
2022-10-18T21:26:23.975Z,93776.31
2022-10-18T21:28:52.505Z,93778.94
2022-10-18T21:31:21.410Z,93771.00
2022-10-18T21:33:53.492Z,93772.53
2022-10-18T21:36:20.090Z,93767.78
2022-10-18T21:38:46.906Z,93771.28
2022-10-18T21:41:15.970Z,93771.81
2022-10-18T21:43:45.439Z,93766.81
2022-10-18T21:46:13.474Z,93768.94
2022-10-18T21:48:43.939Z,93763.66
2022-10-18T21:51:10.919Z,93751.00
2022-10-18T21:53:37.393Z,93758.19
2022-10-18T21:56:08.947Z,93750.81
2022-10-18T21:58:36.725Z,93750.81
2022-10-18T22:01:15.363Z,93746.06
2022-10-18T22:03:43.084Z,93741.09
2022-10-18T22:06:16.363Z,93747.44
2022-10-18T22:08:47.465Z,93741.63
2022-10-18T22:11:14.319Z,93741.09
2022-10-18T22:13:41.542Z,93740.56
2022-10-18T22:16:09.709Z,93733.72
2022-10-18T22:18:36.590Z,93731.06
2022-10-18T22:21:06.226Z,93732.63
2022-10-18T22:23:41.740Z,93726.03
2022-10-18T22:26:18.922Z,93731.03
2022-10-18T22:28:46.333Z,93729.94
2022-10-18T22:31:24.771Z,93735.47
2022-10-18T22:33:56.609Z,93735.75
2022-10-18T22:36:24.735Z,93728.69
2022-10-18T22:38:51.378Z,93730.03
2022-10-18T22:41:17.905Z,93729.72
2022-10-18T22:43:45.171Z,93732.66
2022-10-18T22:46:13.653Z,93732.16
2022-10-18T22:48:41.058Z,93728.72
2022-10-18T22:51:08.710Z,93723.47
2022-10-18T22:53:36.031Z,93720.84
2022-10-18T22:56:03.219Z,93717.38
2022-10-18T22:58:30.015Z,93713.22
2022-10-18T23:01:07.613Z,93710.84
2022-10-18T23:03:34.266Z,93705.63
2022-10-18T23:06:01.018Z,93704.25
2022-10-18T23:08:27.929Z,93703.72
2022-10-18T23:10:57.402Z,93707.97
2022-10-18T23:13:25.523Z,93709.06
2022-10-18T23:15:52.823Z,93707.47
2022-10-18T23:18:19.633Z,93709.88
2022-10-18T23:20:46.140Z,93700.91
2022-10-18T23:23:12.932Z,93716.97
2022-10-18T23:25:40.224Z,93705.31
2022-10-18T23:28:06.862Z,93706.91
2022-10-18T23:30:33.831Z,93700.03
2022-10-18T23:33:00.334Z,93699.56
2022-10-18T23:35:29.249Z,93703.25
2022-10-18T23:37:55.712Z,93691.13
2022-10-18T23:40:22.127Z,93695.34
2022-10-18T23:42:48.620Z,93696.41
2022-10-18T23:45:15.147Z,93694.81
2022-10-18T23:47:41.573Z,93691.69
2022-10-18T23:50:08.419Z,93694.06
2022-10-18T23:52:34.849Z,93690.91
2022-10-18T23:55:01.262Z,93693.78
2022-10-18T23:57:27.784Z,93695.38
2022-10-18T23:59:54.197Z,93686.13
